sensor_id;sensor_type;location;lat;lon;timestamp;temperature;humidity
33207;DHT22;19565;46.602;11.534;2022-12-16T00:01:22;3.00;99.90
33207;DHT22;19565;46.602;11.534;2022-12-16T00:03:52;3.00;99.90
33207;DHT22;19565;46.602;11.534;2022-12-16T00:06:22;3.10;99.90
33207;DHT22;19565;46.602;11.534;2022-12-16T00:08:50;3.00;99.90
33207;DHT22;19565;46.602;11.534;2022-12-16T00:11:20;2.90;99.90
33207;DHT22;19565;46.602;11.534;2022-12-16T00:13:48;2.90;99.90
33207;DHT22;19565;46.602;11.534;2022-12-16T00:16:19;2.90;99.90
33207;DHT22;19565;46.602;11.534;2022-12-16T00:18:47;2.90;99.90
33207;DHT22;19565;46.602;11.534;2022-12-16T00:21:18;2.90;99.90
33207;DHT22;19565;46.602;11.534;2022-12-16T00:23:46;2.70;99.90
33207;DHT22;19565;46.602;11.534;2022-12-16T00:26:14;2.50;99.90
33207;DHT22;19565;46.602;11.534;2022-12-16T00:28:44;2.60;99.90
33207;DHT22;19565;46.602;11.534;2022-12-16T00:31:12;2.70;99.90
33207;DHT22;19565;46.602;11.534;2022-12-16T00:33:40;2.80;99.90
33207;DHT22;19565;46.602;11.534;2022-12-16T00:36:09;2.90;99.90
33207;DHT22;19565;46.602;11.534;2022-12-16T00:38:37;2.90;99.90
33207;DHT22;19565;46.602;11.534;2022-12-16T00:41:05;3.00;99.90
33207;DHT22;19565;46.602;11.534;2022-12-16T00:43:33;3.00;99.90
33207;DHT22;19565;46.602;11.534;2022-12-16T00:46:03;3.00;99.90
33207;DHT22;19565;46.602;11.534;2022-12-16T00:48:31;3.10;99.90
33207;DHT22;19565;46.602;11.534;2022-12-16T00:50:59;3.10;99.90
33207;DHT22;19565;46.602;11.534;2022-12-16T00:53:27;3.10;99.90
33207;DHT22;19565;46.602;11.534;2022-12-16T00:56:03;3.10;99.90
33207;DHT22;19565;46.602;11.534;2022-12-16T00:58:32;3.10;99.90
33207;DHT22;19565;46.602;11.534;2022-12-16T01:01:00;3.10;99.90
33207;DHT22;19565;46.602;11.534;2022-12-16T01:03:29;3.10;99.90
33207;DHT22;19565;46.602;11.534;2022-12-16T01:05:58;3.10;99.90
33207;DHT22;19565;46.602;11.534;2022-12-16T01:08:26;3.00;99.90
33207;DHT22;19565;46.602;11.534;2022-12-16T01:10:55;3.00;99.90
33207;DHT22;19565;46.602;11.534;2022-12-16T01:13:24;3.10;99.90
33207;DHT22;19565;46.602;11.534;2022-12-16T01:15:52;3.10;99.90
33207;DHT22;19565;46.602;11.534;2022-12-16T01:18:20;3.10;99.90
33207;DHT22;19565;46.602;11.534;2022-12-16T01:20:50;3.10;99.90
33207;DHT22;19565;46.602;11.534;2022-12-16T01:23:20;3.10;99.90
33207;DHT22;19565;46.602;11.534;2022-12-16T01:25:51;3.10;99.90
33207;DHT22;19565;46.602;11.534;2022-12-16T01:28:20;3.10;99.90
33207;DHT22;19565;46.602;11.534;2022-12-16T01:30:48;3.10;99.90
33207;DHT22;19565;46.602;11.534;2022-12-16T01:33:21;3.10;99.90
33207;DHT22;19565;46.602;11.534;2022-12-16T01:35:57;3.10;99.90
33207;DHT22;19565;46.602;11.534;2022-12-16T01:38:25;3.10;99.90
33207;DHT22;19565;46.602;11.534;2022-12-16T01:40:53;3.10;99.90
33207;DHT22;19565;46.602;11.534;2022-12-16T01:43:26;3.10;99.90
33207;DHT22;19565;46.602;11.534;2022-12-16T01:45:58;3.10;99.90
33207;DHT22;19565;46.602;11.534;2022-12-16T01:48:40;3.10;99.90
33207;DHT22;19565;46.602;11.534;2022-12-16T01:51:17;3.10;99.90
33207;DHT22;19565;46.602;11.534;2022-12-16T01:53:48;3.10;99.90
33207;DHT22;19565;46.602;11.534;2022-12-16T01:56:36;3.20;99.90
33207;DHT22;19565;46.602;11.534;2022-12-16T01:59:07;3.10;99.90
33207;DHT22;19565;46.602;11.534;2022-12-16T02:01:35;3.10;99.90
33207;DHT22;19565;46.602;11.534;2022-12-16T02:04:04;3.10;99.90
33207;DHT22;19565;46.602;11.534;2022-12-16T02:06:33;3.10;99.90
33207;DHT22;19565;46.602;11.534;2022-12-16T02:09:03;3.10;99.90
33207;DHT22;19565;46.602;11.534;2022-12-16T02:15:10;3.10;99.90
33207;DHT22;19565;46.602;11.534;2022-12-16T02:17:44;3.10;99.90
33207;DHT22;19565;46.602;11.534;2022-12-16T02:20:40;3.10;99.90
33207;DHT22;19565;46.602;11.534;2022-12-16T02:23:42;3.10;99.90
33207;DHT22;19565;46.602;11.534;2022-12-16T02:26:27;3.10;99.90
33207;DHT22;19565;46.602;11.534;2022-12-16T02:29:12;3.10;99.90
33207;DHT22;19565;46.602;11.534;2022-12-16T02:31:51;3.00;99.90
33207;DHT22;19565;46.602;11.534;2022-12-16T02:34:29;3.00;99.90
33207;DHT22;19565;46.602;11.534;2022-12-16T02:37:08;3.10;99.90
33207;DHT22;19565;46.602;11.534;2022-12-16T02:39:44;3.10;99.90
33207;DHT22;19565;46.602;11.534;2022-12-16T02:42:18;3.10;99.90
33207;DHT22;19565;46.602;11.534;2022-12-16T02:44:53;3.10;99.90
33207;DHT22;19565;46.602;11.534;2022-12-16T02:47:43;3.10;99.90
33207;DHT22;19565;46.602;11.534;2022-12-16T02:50:17;3.10;99.90
33207;DHT22;19565;46.602;11.534;2022-12-16T02:52:45;3.10;99.90
33207;DHT22;19565;46.602;11.534;2022-12-16T02:55:14;3.10;99.90
33207;DHT22;19565;46.602;11.534;2022-12-16T02:58:06;3.10;99.90
33207;DHT22;19565;46.602;11.534;2022-12-16T03:00:46;3.10;99.90
33207;DHT22;19565;46.602;11.534;2022-12-16T03:03:42;3.10;99.90
33207;DHT22;19565;46.602;11.534;2022-12-16T03:06:16;3.10;99.90
33207;DHT22;19565;46.602;11.534;2022-12-16T03:08:49;3.10;99.90
33207;DHT22;19565;46.602;11.534;2022-12-16T03:11:19;3.20;99.90
33207;DHT22;19565;46.602;11.534;2022-12-16T03:13:50;3.10;99.90
33207;DHT22;19565;46.602;11.534;2022-12-16T03:16:21;3.10;99.90
33207;DHT22;19565;46.602;11.534;2022-12-16T03:18:55;3.10;99.90
33207;DHT22;19565;46.602;11.534;2022-12-16T03:21:45;3.10;99.90
33207;DHT22;19565;46.602;11.534;2022-12-16T03:24:16;3.10;99.90
33207;DHT22;19565;46.602;11.534;2022-12-16T03:26:50;3.10;99.90
33207;DHT22;19565;46.602;11.534;2022-12-16T03:29:25;3.10;99.90
33207;DHT22;19565;46.602;11.534;2022-12-16T03:31:57;3.20;99.90
33207;DHT22;19565;46.602;11.534;2022-12-16T03:34:32;3.20;99.90
33207;DHT22;19565;46.602;11.534;2022-12-16T03:37:21;3.20;99.90
33207;DHT22;19565;46.602;11.534;2022-12-16T03:39:53;3.20;99.90
33207;DHT22;19565;46.602;11.534;2022-12-16T03:42:23;3.20;99.90
33207;DHT22;19565;46.602;11.534;2022-12-16T03:44:51;3.20;99.90
33207;DHT22;19565;46.602;11.534;2022-12-16T03:47:19;3.20;99.90
33207;DHT22;19565;46.602;11.534;2022-12-16T03:49:51;3.20;99.90
33207;DHT22;19565;46.602;11.534;2022-12-16T03:52:19;3.20;99.90
33207;DHT22;19565;46.602;11.534;2022-12-16T03:55:05;3.20;99.90
33207;DHT22;19565;46.602;11.534;2022-12-16T03:57:33;3.20;99.90
33207;DHT22;19565;46.602;11.534;2022-12-16T04:00:01;3.20;99.90
33207;DHT22;19565;46.602;11.534;2022-12-16T04:02:29;3.20;99.90
33207;DHT22;19565;46.602;11.534;2022-12-16T04:04:59;3.20;99.90
33207;DHT22;19565;46.602;11.534;2022-12-16T04:07:27;3.30;99.90
33207;DHT22;19565;46.602;11.534;2022-12-16T04:10:12;3.30;99.90
33207;DHT22;19565;46.602;11.534;2022-12-16T04:12:40;3.20;99.90
33207;DHT22;19565;46.602;11.534;2022-12-16T04:15:26;3.20;99.90
33207;DHT22;19565;46.602;11.534;2022-12-16T04:18:13;3.30;99.90
33207;DHT22;19565;46.602;11.534;2022-12-16T04:21:02;3.30;99.90
33207;DHT22;19565;46.602;11.534;2022-12-16T04:23:49;3.20;99.90
33207;DHT22;19565;46.602;11.534;2022-12-16T04:26:50;3.20;99.90
33207;DHT22;19565;46.602;11.534;2022-12-16T04:29:41;3.20;99.90
33207;DHT22;19565;46.602;11.534;2022-12-16T04:32:23;3.20;99.90
33207;DHT22;19565;46.602;11.534;2022-12-16T04:34:51;3.30;99.90
33207;DHT22;19565;46.602;11.534;2022-12-16T04:37:20;3.30;99.90
33207;DHT22;19565;46.602;11.534;2022-12-16T04:40:08;3.30;99.90
33207;DHT22;19565;46.602;11.534;2022-12-16T04:42:54;3.20;99.90
33207;DHT22;19565;46.602;11.534;2022-12-16T04:45:40;3.20;99.90
33207;DHT22;19565;46.602;11.534;2022-12-16T04:48:25;3.20;99.90
33207;DHT22;19565;46.602;11.534;2022-12-16T04:51:11;3.20;99.90
33207;DHT22;19565;46.602;11.534;2022-12-16T04:53:58;3.20;99.90
33207;DHT22;19565;46.602;11.534;2022-12-16T04:56:54;3.20;99.90
33207;DHT22;19565;46.602;11.534;2022-12-16T04:59:40;3.20;99.90
33207;DHT22;19565;46.602;11.534;2022-12-16T05:02:26;3.20;99.90
33207;DHT22;19565;46.602;11.534;2022-12-16T05:05:20;3.20;99.90
33207;DHT22;19565;46.602;11.534;2022-12-16T05:08:05;3.20;99.90
33207;DHT22;19565;46.602;11.534;2022-12-16T05:10:52;3.20;99.90
33207;DHT22;19565;46.602;11.534;2022-12-16T05:13:38;3.20;99.90
33207;DHT22;19565;46.602;11.534;2022-12-16T05:16:23;3.20;99.90
33207;DHT22;19565;46.602;11.534;2022-12-16T05:19:09;3.20;99.90
33207;DHT22;19565;46.602;11.534;2022-12-16T05:21:57;3.20;99.90
33207;DHT22;19565;46.602;11.534;2022-12-16T05:24:43;3.20;99.90
33207;DHT22;19565;46.602;11.534;2022-12-16T05:27:30;3.20;99.90
33207;DHT22;19565;46.602;11.534;2022-12-16T05:30:15;3.20;99.90
33207;DHT22;19565;46.602;11.534;2022-12-16T05:33:19;3.20;99.90
33207;DHT22;19565;46.602;11.534;2022-12-16T05:36:04;3.20;99.90
33207;DHT22;19565;46.602;11.534;2022-12-16T05:38:51;3.30;99.90
33207;DHT22;19565;46.602;11.534;2022-12-16T05:41:36;3.30;99.90
33207;DHT22;19565;46.602;11.534;2022-12-16T05:44:23;3.30;99.90
33207;DHT22;19565;46.602;11.534;2022-12-16T05:47:08;3.30;99.90
33207;DHT22;19565;46.602;11.534;2022-12-16T05:49:54;3.30;99.90
33207;DHT22;19565;46.602;11.534;2022-12-16T05:52:46;3.20;99.90
33207;DHT22;19565;46.602;11.534;2022-12-16T05:55:32;3.20;99.90
33207;DHT22;19565;46.602;11.534;2022-12-16T05:58:17;3.30;99.90
33207;DHT22;19565;46.602;11.534;2022-12-16T06:01:05;3.30;99.90
33207;DHT22;19565;46.602;11.534;2022-12-16T06:03:50;3.30;99.90
33207;DHT22;19565;46.602;11.534;2022-12-16T06:06:43;3.30;99.90
33207;DHT22;19565;46.602;11.534;2022-12-16T06:09:28;3.40;99.90
33207;DHT22;19565;46.602;11.534;2022-12-16T06:12:22;3.40;99.90
33207;DHT22;19565;46.602;11.534;2022-12-16T06:15:08;3.40;99.90
33207;DHT22;19565;46.602;11.534;2022-12-16T06:17:55;3.40;99.90
33207;DHT22;19565;46.602;11.534;2022-12-16T06:20:41;3.40;99.90
33207;DHT22;19565;46.602;11.534;2022-12-16T06:23:27;3.40;99.90
33207;DHT22;19565;46.602;11.534;2022-12-16T06:26:12;3.40;99.90
33207;DHT22;19565;46.602;11.534;2022-12-16T06:28:58;3.40;99.90
33207;DHT22;19565;46.602;11.534;2022-12-16T06:31:43;3.40;99.90
33207;DHT22;19565;46.602;11.534;2022-12-16T06:34:30;3.40;99.90
33207;DHT22;19565;46.602;11.534;2022-12-16T06:37:16;3.40;99.90
33207;DHT22;19565;46.602;11.534;2022-12-16T06:40:01;3.30;99.90
33207;DHT22;19565;46.602;11.534;2022-12-16T06:42:47;3.40;99.90
33207;DHT22;19565;46.602;11.534;2022-12-16T06:45:32;3.40;99.90
33207;DHT22;19565;46.602;11.534;2022-12-16T06:48:18;3.40;99.90
33207;DHT22;19565;46.602;11.534;2022-12-16T06:51:05;3.40;99.90
33207;DHT22;19565;46.602;11.534;2022-12-16T06:53:51;3.40;99.90
33207;DHT22;19565;46.602;11.534;2022-12-16T06:56:35;3.40;99.90
33207;DHT22;19565;46.602;11.534;2022-12-16T06:59:29;3.40;99.90
33207;DHT22;19565;46.602;11.534;2022-12-16T07:02:15;3.40;99.90
33207;DHT22;19565;46.602;11.534;2022-12-16T07:05:01;3.40;99.90
33207;DHT22;19565;46.602;11.534;2022-12-16T07:07:49;3.40;99.90
33207;DHT22;19565;46.602;11.534;2022-12-16T07:10:34;3.40;99.90
33207;DHT22;19565;46.602;11.534;2022-12-16T07:13:23;3.40;99.90
33207;DHT22;19565;46.602;11.534;2022-12-16T07:16:08;3.40;99.90
33207;DHT22;19565;46.602;11.534;2022-12-16T07:19:06;3.40;99.90
33207;DHT22;19565;46.602;11.534;2022-12-16T07:21:51;3.40;99.90
33207;DHT22;19565;46.602;11.534;2022-12-16T07:24:38;3.40;99.90
33207;DHT22;19565;46.602;11.534;2022-12-16T07:27:24;3.40;99.90
33207;DHT22;19565;46.602;11.534;2022-12-16T07:30:10;3.50;99.90
33207;DHT22;19565;46.602;11.534;2022-12-16T07:33:10;3.50;99.90
33207;DHT22;19565;46.602;11.534;2022-12-16T07:36:10;3.50;99.90
33207;DHT22;19565;46.602;11.534;2022-12-16T07:38:56;3.50;99.90
33207;DHT22;19565;46.602;11.534;2022-12-16T07:41:43;3.50;99.90
33207;DHT22;19565;46.602;11.534;2022-12-16T07:44:29;3.40;99.90
33207;DHT22;19565;46.602;11.534;2022-12-16T07:47:26;3.40;99.90
33207;DHT22;19565;46.602;11.534;2022-12-16T07:50:12;3.50;99.90
33207;DHT22;19565;46.602;11.534;2022-12-16T07:52:59;3.40;99.90
33207;DHT22;19565;46.602;11.534;2022-12-16T07:55:44;3.50;99.90
33207;DHT22;19565;46.602;11.534;2022-12-16T07:58:31;3.50;99.90
33207;DHT22;19565;46.602;11.534;2022-12-16T08:01:17;3.50;99.90
33207;DHT22;19565;46.602;11.534;2022-12-16T08:04:02;3.60;99.90
33207;DHT22;19565;46.602;11.534;2022-12-16T08:06:48;3.60;99.90
33207;DHT22;19565;46.602;11.534;2022-12-16T08:09:35;3.60;99.90
33207;DHT22;19565;46.602;11.534;2022-12-16T08:12:20;3.60;99.90
33207;DHT22;19565;46.602;11.534;2022-12-16T08:15:08;3.60;99.90
33207;DHT22;19565;46.602;11.534;2022-12-16T08:17:54;3.60;99.90
33207;DHT22;19565;46.602;11.534;2022-12-16T08:20:40;3.70;99.90
33207;DHT22;19565;46.602;11.534;2022-12-16T08:23:25;3.70;99.90
33207;DHT22;19565;46.602;11.534;2022-12-16T08:26:11;3.70;99.90
33207;DHT22;19565;46.602;11.534;2022-12-16T08:28:56;3.70;99.90
33207;DHT22;19565;46.602;11.534;2022-12-16T08:32:05;3.70;99.90
33207;DHT22;19565;46.602;11.534;2022-12-16T08:34:51;3.80;99.90
33207;DHT22;19565;46.602;11.534;2022-12-16T08:37:36;3.70;99.90
33207;DHT22;19565;46.602;11.534;2022-12-16T08:40:22;3.80;99.90
33207;DHT22;19565;46.602;11.534;2022-12-16T08:43:08;3.70;99.90
33207;DHT22;19565;46.602;11.534;2022-12-16T08:45:53;3.70;99.90
33207;DHT22;19565;46.602;11.534;2022-12-16T08:48:41;3.70;99.90
33207;DHT22;19565;46.602;11.534;2022-12-16T08:51:27;3.70;99.90
33207;DHT22;19565;46.602;11.534;2022-12-16T08:54:12;3.70;99.90
33207;DHT22;19565;46.602;11.534;2022-12-16T08:56:58;3.70;99.90
33207;DHT22;19565;46.602;11.534;2022-12-16T08:59:44;3.70;99.90
33207;DHT22;19565;46.602;11.534;2022-12-16T09:02:30;3.70;99.90
33207;DHT22;19565;46.602;11.534;2022-12-16T09:05:18;3.70;99.90
33207;DHT22;19565;46.602;11.534;2022-12-16T09:08:04;3.70;99.90
33207;DHT22;19565;46.602;11.534;2022-12-16T09:10:50;3.60;99.90
33207;DHT22;19565;46.602;11.534;2022-12-16T09:13:36;3.70;99.90
33207;DHT22;19565;46.602;11.534;2022-12-16T09:16:21;3.70;99.90
33207;DHT22;19565;46.602;11.534;2022-12-16T09:19:09;3.70;99.90
33207;DHT22;19565;46.602;11.534;2022-12-16T09:21:56;3.70;99.90
33207;DHT22;19565;46.602;11.534;2022-12-16T09:24:41;3.70;99.90
33207;DHT22;19565;46.602;11.534;2022-12-16T09:27:26;3.70;99.90
33207;DHT22;19565;46.602;11.534;2022-12-16T09:30:12;3.70;99.90
33207;DHT22;19565;46.602;11.534;2022-12-16T09:33:00;3.80;99.90
33207;DHT22;19565;46.602;11.534;2022-12-16T09:35:46;3.80;99.90
33207;DHT22;19565;46.602;11.534;2022-12-16T09:38:33;3.80;99.90
33207;DHT22;19565;46.602;11.534;2022-12-16T09:41:27;3.90;99.90
33207;DHT22;19565;46.602;11.534;2022-12-16T09:44:25;3.80;99.90
33207;DHT22;19565;46.602;11.534;2022-12-16T09:47:21;3.80;99.90
33207;DHT22;19565;46.602;11.534;2022-12-16T09:50:17;3.80;99.90
33207;DHT22;19565;46.602;11.534;2022-12-16T09:53:06;3.90;99.90
33207;DHT22;19565;46.602;11.534;2022-12-16T09:55:56;3.90;99.90
33207;DHT22;19565;46.602;11.534;2022-12-16T09:58:46;3.90;99.90
33207;DHT22;19565;46.602;11.534;2022-12-16T10:01:36;3.90;99.90
33207;DHT22;19565;46.602;11.534;2022-12-16T10:04:23;4.00;99.90
33207;DHT22;19565;46.602;11.534;2022-12-16T10:07:15;3.90;99.90
33207;DHT22;19565;46.602;11.534;2022-12-16T10:10:10;3.90;99.90
33207;DHT22;19565;46.602;11.534;2022-12-16T10:13:06;3.90;99.90
33207;DHT22;19565;46.602;11.534;2022-12-16T10:15:59;3.90;99.90
33207;DHT22;19565;46.602;11.534;2022-12-16T10:18:56;3.90;99.90
33207;DHT22;19565;46.602;11.534;2022-12-16T10:21:49;3.90;99.90
33207;DHT22;19565;46.602;11.534;2022-12-16T10:24:49;4.00;99.90
33207;DHT22;19565;46.602;11.534;2022-12-16T10:27:42;4.00;99.90
33207;DHT22;19565;46.602;11.534;2022-12-16T10:30:30;4.00;99.90
33207;DHT22;19565;46.602;11.534;2022-12-16T10:33:19;4.00;99.90
33207;DHT22;19565;46.602;11.534;2022-12-16T10:36:10;4.00;99.90
33207;DHT22;19565;46.602;11.534;2022-12-16T10:38:59;4.00;99.90
33207;DHT22;19565;46.602;11.534;2022-12-16T10:41:51;4.00;99.90
33207;DHT22;19565;46.602;11.534;2022-12-16T10:44:46;4.00;99.90
33207;DHT22;19565;46.602;11.534;2022-12-16T10:47:33;4.10;99.90
33207;DHT22;19565;46.602;11.534;2022-12-16T10:50:19;4.10;99.90
33207;DHT22;19565;46.602;11.534;2022-12-16T10:53:11;4.00;99.90
33207;DHT22;19565;46.602;11.534;2022-12-16T10:56:10;4.00;99.90
33207;DHT22;19565;46.602;11.534;2022-12-16T10:59:02;4.00;99.90
33207;DHT22;19565;46.602;11.534;2022-12-16T11:01:56;4.00;99.90
33207;DHT22;19565;46.602;11.534;2022-12-16T11:04:44;4.00;99.90
33207;DHT22;19565;46.602;11.534;2022-12-16T11:07:32;4.00;99.90
33207;DHT22;19565;46.602;11.534;2022-12-16T11:10:35;4.10;99.90
33207;DHT22;19565;46.602;11.534;2022-12-16T11:13:24;4.10;99.90
33207;DHT22;19565;46.602;11.534;2022-12-16T11:16:13;4.10;99.90
33207;DHT22;19565;46.602;11.534;2022-12-16T11:18:59;4.10;99.90
33207;DHT22;19565;46.602;11.534;2022-12-16T11:21:47;4.10;99.90
33207;DHT22;19565;46.602;11.534;2022-12-16T11:24:33;4.20;99.90
33207;DHT22;19565;46.602;11.534;2022-12-16T11:27:23;4.20;99.90
33207;DHT22;19565;46.602;11.534;2022-12-16T11:30:18;4.20;99.90
33207;DHT22;19565;46.602;11.534;2022-12-16T11:33:10;4.20;99.90
33207;DHT22;19565;46.602;11.534;2022-12-16T11:36:10;4.10;99.90
33207;DHT22;19565;46.602;11.534;2022-12-16T11:38:59;4.10;99.90
33207;DHT22;19565;46.602;11.534;2022-12-16T11:41:47;4.10;99.90
33207;DHT22;19565;46.602;11.534;2022-12-16T11:44:38;4.20;99.90
33207;DHT22;19565;46.602;11.534;2022-12-16T11:47:31;4.20;99.90
33207;DHT22;19565;46.602;11.534;2022-12-16T11:50:20;4.30;99.90
33207;DHT22;19565;46.602;11.534;2022-12-16T11:53:26;4.30;99.90
33207;DHT22;19565;46.602;11.534;2022-12-16T11:56:19;4.30;99.90
33207;DHT22;19565;46.602;11.534;2022-12-16T11:59:23;4.30;99.90
33207;DHT22;19565;46.602;11.534;2022-12-16T12:02:14;4.30;99.90
33207;DHT22;19565;46.602;11.534;2022-12-16T12:05:01;4.30;99.90
33207;DHT22;19565;46.602;11.534;2022-12-16T12:07:51;4.30;99.90
33207;DHT22;19565;46.602;11.534;2022-12-16T12:10:54;4.30;99.90
33207;DHT22;19565;46.602;11.534;2022-12-16T12:13:56;4.30;99.90
33207;DHT22;19565;46.602;11.534;2022-12-16T12:16:59;4.30;99.90
33207;DHT22;19565;46.602;11.534;2022-12-16T12:19:57;4.30;99.90
33207;DHT22;19565;46.602;11.534;2022-12-16T12:22:45;4.30;99.90
33207;DHT22;19565;46.602;11.534;2022-12-16T12:25:36;4.30;99.90
33207;DHT22;19565;46.602;11.534;2022-12-16T12:28:33;4.40;99.90
33207;DHT22;19565;46.602;11.534;2022-12-16T12:31:30;4.30;99.90
33207;DHT22;19565;46.602;11.534;2022-12-16T12:34:29;4.40;99.90
33207;DHT22;19565;46.602;11.534;2022-12-16T12:37:22;4.40;99.90
33207;DHT22;19565;46.602;11.534;2022-12-16T12:40:21;4.30;99.90
33207;DHT22;19565;46.602;11.534;2022-12-16T12:43:16;4.30;99.90
33207;DHT22;19565;46.602;11.534;2022-12-16T12:46:14;4.30;99.90
33207;DHT22;19565;46.602;11.534;2022-12-16T12:49:10;4.30;99.90
33207;DHT22;19565;46.602;11.534;2022-12-16T12:52:04;4.30;99.90
33207;DHT22;19565;46.602;11.534;2022-12-16T12:55:00;4.30;99.90
33207;DHT22;19565;46.602;11.534;2022-12-16T12:57:48;4.30;99.90
33207;DHT22;19565;46.602;11.534;2022-12-16T13:00:38;4.30;99.90
33207;DHT22;19565;46.602;11.534;2022-12-16T13:03:30;4.40;99.90
33207;DHT22;19565;46.602;11.534;2022-12-16T13:06:20;4.40;99.90
33207;DHT22;19565;46.602;11.534;2022-12-16T13:09:30;4.40;99.90
33207;DHT22;19565;46.602;11.534;2022-12-16T13:12:25;4.40;99.90
33207;DHT22;19565;46.602;11.534;2022-12-16T13:15:19;4.40;99.90
33207;DHT22;19565;46.602;11.534;2022-12-16T13:18:22;4.40;99.90
33207;DHT22;19565;46.602;11.534;2022-12-16T13:24:49;4.40;99.90
33207;DHT22;19565;46.602;11.534;2022-12-16T13:27:52;4.30;99.90
33207;DHT22;19565;46.602;11.534;2022-12-16T13:30:38;4.30;99.90
33207;DHT22;19565;46.602;11.534;2022-12-16T13:33:26;4.30;99.90
33207;DHT22;19565;46.602;11.534;2022-12-16T13:36:14;4.40;99.90
33207;DHT22;19565;46.602;11.534;2022-12-16T13:39:20;4.30;99.90
33207;DHT22;19565;46.602;11.534;2022-12-16T13:42:31;4.30;99.90
33207;DHT22;19565;46.602;11.534;2022-12-16T13:45:29;4.20;99.90
33207;DHT22;19565;46.602;11.534;2022-12-16T13:48:36;4.20;99.90
33207;DHT22;19565;46.602;11.534;2022-12-16T13:55:10;4.20;99.90
33207;DHT22;19565;46.602;11.534;2022-12-16T13:58:02;4.20;99.90
33207;DHT22;19565;46.602;11.534;2022-12-16T14:01:00;4.10;99.90
33207;DHT22;19565;46.602;11.534;2022-12-16T14:03:50;4.00;99.90
33207;DHT22;19565;46.602;11.534;2022-12-16T14:06:40;4.00;99.90
33207;DHT22;19565;46.602;11.534;2022-12-16T14:09:32;4.00;99.90
33207;DHT22;19565;46.602;11.534;2022-12-16T14:12:40;4.00;99.90
33207;DHT22;19565;46.602;11.534;2022-12-16T14:15:34;4.00;99.90
33207;DHT22;19565;46.602;11.534;2022-12-16T14:18:31;3.90;99.90
33207;DHT22;19565;46.602;11.534;2022-12-16T14:21:26;3.90;99.90
33207;DHT22;19565;46.602;11.534;2022-12-16T14:24:20;3.90;99.90
33207;DHT22;19565;46.602;11.534;2022-12-16T14:27:14;3.90;99.90
33207;DHT22;19565;46.602;11.534;2022-12-16T14:30:01;4.00;99.90
33207;DHT22;19565;46.602;11.534;2022-12-16T14:32:48;4.00;99.90
33207;DHT22;19565;46.602;11.534;2022-12-16T14:35:33;4.00;99.90
33207;DHT22;19565;46.602;11.534;2022-12-16T14:38:24;4.10;99.90
33207;DHT22;19565;46.602;11.534;2022-12-16T14:41:11;4.20;99.90
33207;DHT22;19565;46.602;11.534;2022-12-16T14:43:58;4.20;99.90
33207;DHT22;19565;46.602;11.534;2022-12-16T14:46:48;4.20;99.90
33207;DHT22;19565;46.602;11.534;2022-12-16T14:49:48;4.20;99.90
33207;DHT22;19565;46.602;11.534;2022-12-16T14:52:39;4.20;99.90
33207;DHT22;19565;46.602;11.534;2022-12-16T14:55:29;4.30;99.90
33207;DHT22;19565;46.602;11.534;2022-12-16T14:58:15;4.30;99.90
33207;DHT22;19565;46.602;11.534;2022-12-16T15:01:04;4.10;99.90
33207;DHT22;19565;46.602;11.534;2022-12-16T15:03:57;4.10;99.90
33207;DHT22;19565;46.602;11.534;2022-12-16T15:06:48;4.10;99.90
33207;DHT22;19565;46.602;11.534;2022-12-16T15:09:38;4.00;99.90
33207;DHT22;19565;46.602;11.534;2022-12-16T15:12:41;4.00;99.90
33207;DHT22;19565;46.602;11.534;2022-12-16T15:15:31;4.10;99.90
33207;DHT22;19565;46.602;11.534;2022-12-16T15:18:20;4.00;99.90
33207;DHT22;19565;46.602;11.534;2022-12-16T15:21:07;4.00;99.90
33207;DHT22;19565;46.602;11.534;2022-12-16T15:23:55;4.00;99.90
33207;DHT22;19565;46.602;11.534;2022-12-16T15:26:40;4.10;99.90
33207;DHT22;19565;46.602;11.534;2022-12-16T15:29:32;4.10;99.90
33207;DHT22;19565;46.602;11.534;2022-12-16T15:32:29;4.10;99.90
33207;DHT22;19565;46.602;11.534;2022-12-16T15:35:26;4.20;99.90
33207;DHT22;19565;46.602;11.534;2022-12-16T15:38:21;4.20;99.90
33207;DHT22;19565;46.602;11.534;2022-12-16T15:41:20;4.10;99.90
33207;DHT22;19565;46.602;11.534;2022-12-16T15:44:14;4.20;99.90
33207;DHT22;19565;46.602;11.534;2022-12-16T15:47:00;4.20;99.90
33207;DHT22;19565;46.602;11.534;2022-12-16T15:49:47;4.30;99.90
33207;DHT22;19565;46.602;11.534;2022-12-16T15:52:35;4.40;99.90
33207;DHT22;19565;46.602;11.534;2022-12-16T15:55:23;4.30;99.90
33207;DHT22;19565;46.602;11.534;2022-12-16T15:58:17;4.30;99.90
33207;DHT22;19565;46.602;11.534;2022-12-16T16:01:04;4.30;99.90
33207;DHT22;19565;46.602;11.534;2022-12-16T16:03:52;4.30;99.90
33207;DHT22;19565;46.602;11.534;2022-12-16T16:06:41;4.30;99.90
33207;DHT22;19565;46.602;11.534;2022-12-16T16:09:30;4.30;99.90
33207;DHT22;19565;46.602;11.534;2022-12-16T16:12:17;4.30;99.90
33207;DHT22;19565;46.602;11.534;2022-12-16T16:15:07;4.30;99.90
33207;DHT22;19565;46.602;11.534;2022-12-16T16:17:55;4.30;99.90
33207;DHT22;19565;46.602;11.534;2022-12-16T16:20:42;4.30;99.90
33207;DHT22;19565;46.602;11.534;2022-12-16T16:23:27;4.30;99.90
33207;DHT22;19565;46.602;11.534;2022-12-16T16:26:15;4.30;99.90
33207;DHT22;19565;46.602;11.534;2022-12-16T16:29:01;4.30;99.90
33207;DHT22;19565;46.602;11.534;2022-12-16T16:31:48;4.30;99.90
33207;DHT22;19565;46.602;11.534;2022-12-16T16:34:33;4.30;99.90
33207;DHT22;19565;46.602;11.534;2022-12-16T16:37:19;4.30;99.90
33207;DHT22;19565;46.602;11.534;2022-12-16T16:40:16;4.30;99.90
33207;DHT22;19565;46.602;11.534;2022-12-16T16:43:02;4.30;99.90
33207;DHT22;19565;46.602;11.534;2022-12-16T16:45:53;4.30;99.90
33207;DHT22;19565;46.602;11.534;2022-12-16T16:48:40;4.30;99.90
33207;DHT22;19565;46.602;11.534;2022-12-16T16:51:26;4.30;99.90
33207;DHT22;19565;46.602;11.534;2022-12-16T16:54:12;4.30;99.90
33207;DHT22;19565;46.602;11.534;2022-12-16T16:57:09;4.20;99.90
33207;DHT22;19565;46.602;11.534;2022-12-16T16:59:55;4.20;99.90
33207;DHT22;19565;46.602;11.534;2022-12-16T17:02:43;4.30;99.90
33207;DHT22;19565;46.602;11.534;2022-12-16T17:05:32;4.30;99.90
33207;DHT22;19565;46.602;11.534;2022-12-16T17:08:18;4.30;99.90
33207;DHT22;19565;46.602;11.534;2022-12-16T17:11:09;4.30;99.90
33207;DHT22;19565;46.602;11.534;2022-12-16T17:13:56;4.30;99.90
33207;DHT22;19565;46.602;11.534;2022-12-16T17:16:41;4.30;99.90
33207;DHT22;19565;46.602;11.534;2022-12-16T17:19:27;4.30;99.90
33207;DHT22;19565;46.602;11.534;2022-12-16T17:22:14;4.20;99.90
33207;DHT22;19565;46.602;11.534;2022-12-16T17:25:00;4.20;99.90
33207;DHT22;19565;46.602;11.534;2022-12-16T17:27:46;4.20;99.90
33207;DHT22;19565;46.602;11.534;2022-12-16T17:30:34;4.20;99.90
33207;DHT22;19565;46.602;11.534;2022-12-16T17:33:20;4.30;99.90
33207;DHT22;19565;46.602;11.534;2022-12-16T17:36:09;4.20;99.90